Time;durP1;ratioP1;P1;durP2;ratioP2;P2;SDS_P1;SDS_P2;PMS_P1;PMS_P2;Temp;Humidity;BMP_temperature;BMP_pressure;BME280_temperature;BME280_humidity;BME280_pressure;Samples;Min_cycle;Max_cycle;Signal;HPM_P1;HPM_P2
2022/04/29 00:02:05;;;;;;;6.20;3.95;;;;;;;;;;4404637;32;20628;-56
2022/04/29 00:04:31;;;;;;;4.22;3.30;;;;;;;;;;4389991;32;20614;-56
2022/04/29 00:06:56;;;;;;;7.12;3.62;;;;;;;;;;4389868;32;20257;-56
2022/04/29 00:09:22;;;;;;;4.82;3.15;;;;;;;;;;4390001;32;20343;-57
2022/04/29 00:11:47;;;;;;;5.43;3.70;;;;;;;;;;4389616;32;20232;-56
2022/04/29 00:14:13;;;;;;;5.15;3.22;;;;;;;;;;4415484;32;20261;-56
2022/04/29 00:16:39;;;;;;;8.10;5.45;;;;;;;;;;4404649;32;20633;-56
2022/04/29 00:19:04;;;;;;;4.47;3.45;;;;;;;;;;4404739;32;20649;-56
2022/04/29 00:21:29;;;;;;;4.43;3.50;;;;;;;;;;4404489;32;20271;-56
2022/04/29 00:23:56;;;;;;;4.70;3.37;;;;;;;;;;4397027;32;20234;-56
2022/04/29 00:26:21;;;;;;;6.30;3.65;;;;;;;;;;4404235;32;20318;-56
2022/04/29 00:28:47;;;;;;;4.85;3.80;;;;;;;;;;4404557;32;20280;-56
2022/04/29 00:31:13;;;;;;;4.25;3.37;;;;;;;;;;4403234;32;20559;-56
2022/04/29 00:33:38;;;;;;;5.68;3.58;;;;;;;;;;4404741;32;20248;-57
2022/04/29 00:36:04;;;;;;;5.12;3.22;;;;;;;;;;4404274;32;20280;-57
2022/04/29 00:38:29;;;;;;;4.45;3.60;;;;;;;;;;4404221;32;20288;-57
2022/04/29 00:40:54;;;;;;;4.15;3.37;;;;;;;;;;4403998;32;20307;-57
2022/04/29 00:43:20;;;;;;;4.50;3.45;;;;;;;;;;4404305;32;20351;-57
2022/04/29 00:45:45;;;;;;;5.50;4.10;;;;;;;;;;4398746;32;20368;-57
2022/04/29 00:48:11;;;;;;;5.35;3.53;;;;;;;;;;4388940;32;20246;-57
2022/04/29 00:50:36;;;;;;;4.28;3.33;;;;;;;;;;4391931;32;20339;-58
2022/04/29 00:53:02;;;;;;;4.95;3.58;;;;;;;;;;4404121;32;20236;-55
2022/04/29 00:55:30;;;;;;;5.22;3.47;;;;;;;;;;4403526;32;20360;-56
2022/04/29 00:58:16;;;;;;;4.82;2.87;;;;;;;;;;4403947;32;20229;-56
2022/04/29 01:00:42;;;;;;;4.22;3.08;;;;;;;;;;4404198;32;20480;-57
2022/04/29 01:03:11;;;;;;;3.55;2.87;;;;;;;;;;4396916;32;20230;-57
2022/04/29 01:05:39;;;;;;;3.87;3.22;;;;;;;;;;4392568;32;20527;-57
2022/04/29 01:08:05;;;;;;;4.60;3.17;;;;;;;;;;4403765;32;20241;-57
2022/04/29 01:10:31;;;;;;;5.12;3.60;;;;;;;;;;4403984;32;20301;-57
2022/04/29 01:12:59;;;;;;;3.60;3.20;;;;;;;;;;4403831;32;20610;-57
2022/04/29 01:15:25;;;;;;;4.40;2.92;;;;;;;;;;4404218;32;20233;-57
2022/04/29 01:17:54;;;;;;;9.65;3.70;;;;;;;;;;4402354;32;20487;-57
2022/04/29 01:20:24;;;;;;;7.28;3.17;;;;;;;;;;4403512;32;20292;-57
2022/04/29 01:22:49;;;;;;;3.47;3.10;;;;;;;;;;4402571;32;20282;-57
2022/04/29 01:25:14;;;;;;;4.00;2.90;;;;;;;;;;4387631;32;20301;-56
2022/04/29 01:27:40;;;;;;;2.53;2.20;;;;;;;;;;4388049;32;20329;-56
2022/04/29 01:30:11;;;;;;;2.92;2.40;;;;;;;;;;4388495;32;20323;-57
2022/04/29 01:32:39;;;;;;;4.40;2.92;;;;;;;;;;4395301;32;20260;-56
2022/04/29 01:35:06;;;;;;;3.90;3.22;;;;;;;;;;4403175;32;20664;-56
2022/04/29 01:37:32;;;;;;;6.80;3.60;;;;;;;;;;4401967;32;20363;-56
2022/04/29 01:39:57;;;;;;;4.60;3.35;;;;;;;;;;4403273;32;20331;-58
2022/04/29 01:42:23;;;;;;;4.12;3.00;;;;;;;;;;4395377;32;20230;-56
2022/04/29 01:44:49;;;;;;;4.65;3.15;;;;;;;;;;4388313;32;20269;-56
2022/04/29 01:47:14;;;;;;;4.43;3.03;;;;;;;;;;4393379;32;20446;-56
2022/04/29 01:49:40;;;;;;;5.10;3.72;;;;;;;;;;4403204;32;20646;-56
2022/04/29 01:52:06;;;;;;;7.87;3.72;;;;;;;;;;4403392;32;20198;-55
2022/04/29 01:54:32;;;;;;;6.57;3.60;;;;;;;;;;4403684;32;20329;-56
2022/04/29 01:56:57;;;;;;;4.10;2.95;;;;;;;;;;4403019;32;20322;-56
2022/04/29 01:59:23;;;;;;;6.40;3.78;;;;;;;;;;4401292;32;20726;-56
2022/04/29 02:01:48;;;;;;;7.55;4.07;;;;;;;;;;4403216;32;20293;-56
2022/04/29 02:04:15;;;;;;;7.40;4.00;;;;;;;;;;4389213;32;20311;-56
2022/04/29 02:06:41;;;;;;;6.30;3.83;;;;;;;;;;4397763;32;20248;-56
2022/04/29 02:09:07;;;;;;;4.15;3.12;;;;;;;;;;4414738;32;20565;-55
2022/04/29 02:11:34;;;;;;;4.40;3.60;;;;;;;;;;4414056;32;20657;-56
2022/04/29 02:14:00;;;;;;;5.75;3.83;;;;;;;;;;4402948;32;20280;-56
2022/04/29 02:16:25;;;;;;;3.67;3.08;;;;;;;;;;4402796;32;20291;-56
2022/04/29 02:18:51;;;;;;;3.60;2.60;;;;;;;;;;4402798;32;20625;-56
2022/04/29 02:21:16;;;;;;;4.60;3.45;;;;;;;;;;4395661;32;20725;-56
2022/04/29 02:23:42;;;;;;;4.85;3.70;;;;;;;;;;4387994;32;20567;-56
2022/04/29 02:26:07;;;;;;;4.97;4.00;;;;;;;;;;4386733;32;20307;-56
2022/04/29 02:28:33;;;;;;;5.78;4.43;;;;;;;;;;4394007;32;20348;-56
2022/04/29 02:31:00;;;;;;;7.93;4.87;;;;;;;;;;4402840;32;20292;-60
2022/04/29 02:33:27;;;;;;;6.97;4.32;;;;;;;;;;4402782;32;20229;-56
2022/04/29 02:35:53;;;;;;;6.43;4.10;;;;;;;;;;4402645;32;20217;-56
2022/04/29 02:38:18;;;;;;;7.62;3.80;;;;;;;;;;4402690;32;20249;-56
2022/04/29 02:40:44;;;;;;;5.47;3.83;;;;;;;;;;4402623;32;20650;-56
2022/04/29 02:43:10;;;;;;;6.53;4.12;;;;;;;;;;4393306;32;20245;-57
2022/04/29 02:45:35;;;;;;;3.67;3.17;;;;;;;;;;4402649;32;20298;-56
2022/04/29 02:48:00;;;;;;;4.40;3.37;;;;;;;;;;4402626;32;20297;-56
2022/04/29 02:50:26;;;;;;;5.50;4.47;;;;;;;;;;4401534;32;20435;-56
2022/04/29 02:52:51;;;;;;;6.10;3.78;;;;;;;;;;4401204;32;20229;-56
2022/04/29 02:55:18;;;;;;;6.35;4.25;;;;;;;;;;4402488;32;20265;-57
2022/04/29 02:57:43;;;;;;;6.10;3.90;;;;;;;;;;4401326;32;20226;-56
2022/04/29 03:00:09;;;;;;;9.40;4.25;;;;;;;;;;4402204;32;20288;-56
2022/04/29 03:02:35;;;;;;;5.50;4.15;;;;;;;;;;4402671;32;20687;-57
2022/04/29 03:05:00;;;;;;;5.10;3.53;;;;;;;;;;4402347;32;20304;-58
2022/04/29 03:07:25;;;;;;;5.60;4.20;;;;;;;;;;4387523;32;20230;-57
2022/04/29 03:09:51;;;;;;;5.53;3.97;;;;;;;;;;4398617;32;20351;-57
2022/04/29 03:12:16;;;;;;;7.87;5.40;;;;;;;;;;4389722;32;20264;-56
2022/04/29 03:14:42;;;;;;;6.00;4.57;;;;;;;;;;4402776;32;20272;-57
2022/04/29 03:18:17;;;;;;;5.55;3.87;;;;;;;;;;4398056;32;20232;-56
2022/04/29 03:19:59;;;;;;;4.80;3.65;;;;;;;;;;4394743;32;20300;-56
2022/04/29 03:22:26;;;;;;;4.87;3.60;;;;;;;;;;4405411;32;20252;-55
2022/04/29 03:24:51;;;;;;;5.43;3.70;;;;;;;;;;4398200;32;20275;-56
2022/04/29 03:27:17;;;;;;;5.22;3.87;;;;;;;;;;4405389;32;20707;-56
2022/04/29 03:29:42;;;;;;;5.37;4.32;;;;;;;;;;4405238;32;20440;-56
2022/04/29 03:32:08;;;;;;;5.90;4.57;;;;;;;;;;4405028;32;20240;-57
2022/04/29 03:34:34;;;;;;;8.13;4.78;;;;;;;;;;4405255;32;20731;-56
2022/04/29 03:36:59;;;;;;;7.70;4.75;;;;;;;;;;4405146;32;20233;-56
2022/04/29 03:39:25;;;;;;;6.62;4.78;;;;;;;;;;4404764;32;20280;-56
2022/04/29 03:41:51;;;;;;;8.75;4.80;;;;;;;;;;4400878;32;20312;-55
2022/04/29 03:44:17;;;;;;;5.03;4.18;;;;;;;;;;4389639;32;20318;-57
2022/04/29 03:46:42;;;;;;;6.45;4.37;;;;;;;;;;4389698;32;20542;-56
2022/04/29 03:51:52;;;;;;;14.57;8.13;;;;;;;;;;4389633;32;20299;-56
2022/04/29 03:54:17;;;;;;;10.10;6.05;;;;;;;;;;4389742;32;20394;-56
2022/04/29 03:56:44;;;;;;;5.53;3.72;;;;;;;;;;4389361;32;20214;-56
2022/04/29 03:59:09;;;;;;;6.85;4.60;;;;;;;;;;4399718;32;20678;-56
2022/04/29 04:01:35;;;;;;;4.37;3.08;;;;;;;;;;4404506;32;20201;-56
2022/04/29 04:04:03;;;;;;;4.03;3.00;;;;;;;;;;4392524;32;20280;-56
2022/04/29 04:09:12;;;;;;;6.28;3.55;;;;;;;;;;4404882;32;20671;-56
2022/04/29 04:11:38;;;;;;;16.62;5.10;;;;;;;;;;4403169;32;20293;-55
2022/04/29 04:14:03;;;;;;;14.50;3.83;;;;;;;;;;4395569;32;20284;-56
2022/04/29 04:16:29;;;;;;;4.90;3.83;;;;;;;;;;4389715;32;20317;-56
2022/04/29 04:18:54;;;;;;;6.32;3.95;;;;;;;;;;4404545;32;20635;-57
2022/04/29 04:21:19;;;;;;;8.70;5.12;;;;;;;;;;4404287;32;20339;-56
2022/04/29 04:23:45;;;;;;;7.28;4.45;;;;;;;;;;4397744;32;20276;-56
2022/04/29 04:26:10;;;;;;;6.93;4.32;;;;;;;;;;4389184;32;20311;-56
2022/04/29 04:28:36;;;;;;;6.12;4.57;;;;;;;;;;4388828;32;20249;-56
2022/04/29 04:31:01;;;;;;;6.05;5.05;;;;;;;;;;4388695;32;20261;-56
2022/04/29 04:33:27;;;;;;;7.20;5.47;;;;;;;;;;4388892;32;20245;-56
2022/04/29 04:35:52;;;;;;;11.30;6.32;;;;;;;;;;4393662;32;20384;-57
2022/04/29 04:38:18;;;;;;;11.20;6.62;;;;;;;;;;4403935;32;20301;-55
2022/04/29 04:40:43;;;;;;;11.02;5.87;;;;;;;;;;4403993;32;20637;-56
2022/04/29 04:43:09;;;;;;;12.13;5.93;;;;;;;;;;4391349;32;20225;-57
2022/04/29 04:45:35;;;;;;;8.00;5.82;;;;;;;;;;4388651;32;20284;-56
2022/04/29 04:48:00;;;;;;;7.62;5.32;;;;;;;;;;4388882;32;20378;-57
2022/04/29 04:50:25;;;;;;;7.40;5.18;;;;;;;;;;4388453;32;20352;-56
2022/04/29 04:52:51;;;;;;;11.80;5.75;;;;;;;;;;4388174;32;20296;-55
2022/04/29 04:55:17;;;;;;;20.10;5.35;;;;;;;;;;4388200;32;20658;-55
2022/04/29 04:57:42;;;;;;;7.90;4.97;;;;;;;;;;4388471;32;20697;-57
2022/04/29 05:00:09;;;;;;;9.85;4.25;;;;;;;;;;4402985;32;20296;-58
2022/04/29 05:02:34;;;;;;;6.37;4.28;;;;;;;;;;4403325;32;20236;-57
2022/04/29 05:04:59;;;;;;;7.40;4.12;;;;;;;;;;4403848;32;20704;-56
2022/04/29 05:07:25;;;;;;;7.93;4.32;;;;;;;;;;4415173;32;20241;-55
2022/04/29 05:09:51;;;;;;;14.87;4.20;;;;;;;;;;4397466;32;20344;-57
2022/04/29 05:12:16;;;;;;;4.90;3.90;;;;;;;;;;4390665;32;20213;-56
2022/04/29 05:14:42;;;;;;;5.00;3.08;;;;;;;;;;4403506;32;20272;-56
2022/04/29 05:17:07;;;;;;;5.62;3.85;;;;;;;;;;4403235;32;20557;-55
2022/04/29 05:19:33;;;;;;;3.95;3.55;;;;;;;;;;4402871;32;20296;-55
2022/04/29 05:21:58;;;;;;;7.60;4.05;;;;;;;;;;4403132;32;20279;-55
2022/04/29 05:24:23;;;;;;;5.37;4.50;;;;;;;;;;4403113;32;20336;-54
2022/04/29 05:26:49;;;;;;;5.47;4.12;;;;;;;;;;4402828;32;20284;-56
2022/04/29 05:29:14;;;;;;;4.95;3.58;;;;;;;;;;4403191;32;20324;-54
2022/04/29 05:31:40;;;;;;;6.07;3.75;;;;;;;;;;4403410;32;20543;-54
2022/04/29 05:34:06;;;;;;;3.87;3.37;;;;;;;;;;4403354;32;20644;-54
2022/04/29 05:36:34;;;;;;;4.50;3.47;;;;;;;;;;4402606;32;20323;-56
2022/04/29 05:44:28;;;;;;;6.28;3.87;;;;;;;;;;4402662;32;20290;-54
2022/04/29 05:46:53;;;;;;;8.23;4.25;;;;;;;;;;4402626;32;20206;-54
2022/04/29 05:49:19;;;;;;;5.62;3.92;;;;;;;;;;4402247;32;20378;-55
2022/04/29 05:51:44;;;;;;;4.20;3.72;;;;;;;;;;4402173;32;20239;-55
2022/04/29 05:54:10;;;;;;;5.18;3.87;;;;;;;;;;4402494;32;20286;-54
2022/04/29 05:56:35;;;;;;;7.65;4.57;;;;;;;;;;4402736;32;20241;-55
2022/04/29 05:59:01;;;;;;;5.07;3.47;;;;;;;;;;4402374;32;20296;-54
2022/04/29 06:01:26;;;;;;;7.60;4.50;;;;;;;;;;4402324;32;20324;-54
2022/04/29 06:03:51;;;;;;;6.72;6.10;;;;;;;;;;4402600;32;20237;-55
2022/04/29 06:06:17;;;;;;;6.00;4.15;;;;;;;;;;4394378;32;20736;-55
2022/04/29 06:08:42;;;;;;;5.10;3.72;;;;;;;;;;4387177;32;20309;-55
2022/04/29 06:11:08;;;;;;;5.85;4.05;;;;;;;;;;4387183;32;20435;-55
2022/04/29 06:13:33;;;;;;;3.97;3.58;;;;;;;;;;4396957;32;20356;-57
2022/04/29 06:15:59;;;;;;;4.37;3.42;;;;;;;;;;4402307;32;20288;-55
2022/04/29 06:18:24;;;;;;;7.65;3.47;;;;;;;;;;4396195;32;20255;-54
2022/04/29 06:20:50;;;;;;;5.80;3.87;;;;;;;;;;4397389;32;20656;-56
2022/04/29 06:23:16;;;;;;;4.82;3.35;;;;;;;;;;4398258;32;20248;-54
2022/04/29 06:25:41;;;;;;;4.12;3.00;;;;;;;;;;4386652;32;20710;-54
2022/04/29 06:28:07;;;;;;;4.78;3.78;;;;;;;;;;4385819;32;20298;-54
2022/04/29 06:30:32;;;;;;;9.13;4.37;;;;;;;;;;4387098;32;20378;-55
2022/04/29 06:32:58;;;;;;;6.22;4.10;;;;;;;;;;4396415;32;21059;-57
2022/04/29 06:35:23;;;;;;;5.20;3.97;;;;;;;;;;4400841;32;20309;-56
2022/04/29 06:37:49;;;;;;;6.87;4.50;;;;;;;;;;4401877;32;20229;-56
2022/04/29 06:40:14;;;;;;;7.18;4.47;;;;;;;;;;4400653;32;20311;-56
2022/04/29 06:42:45;;;;;;;6.70;4.05;;;;;;;;;;4392536;32;20344;-56
2022/04/29 06:45:12;;;;;;;6.78;3.65;;;;;;;;;;4386597;32;20293;-57
2022/04/29 06:47:37;;;;;;;6.50;4.40;;;;;;;;;;4386207;32;20234;-56
2022/04/29 06:50:03;;;;;;;6.75;5.22;;;;;;;;;;4386535;32;20793;-56
2022/04/29 06:52:29;;;;;;;6.90;4.80;;;;;;;;;;4400036;32;20229;-56
2022/04/29 06:54:55;;;;;;;11.48;5.25;;;;;;;;;;4401797;32;20409;-56
2022/04/29 06:57:21;;;;;;;7.40;5.20;;;;;;;;;;4413305;32;20265;-56
2022/04/29 06:59:49;;;;;;;6.37;5.15;;;;;;;;;;4401707;32;20240;-56
2022/04/29 07:02:16;;;;;;;5.75;4.43;;;;;;;;;;4397767;32;20676;-56
2022/04/29 07:04:41;;;;;;;7.55;5.00;;;;;;;;;;4402106;32;20348;-56
2022/04/29 07:07:07;;;;;;;8.23;5.62;;;;;;;;;;4402376;32;20262;-57
2022/04/29 07:09:32;;;;;;;5.93;4.22;;;;;;;;;;4401347;32;20280;-55
2022/04/29 07:11:59;;;;;;;5.05;4.55;;;;;;;;;;4401480;32;20700;-56
2022/04/29 07:14:25;;;;;;;8.65;4.43;;;;;;;;;;4401337;32;20221;-56
2022/04/29 07:16:50;;;;;;;8.05;5.00;;;;;;;;;;4401095;32;20280;-55
2022/04/29 07:19:15;;;;;;;4.97;4.20;;;;;;;;;;4401537;32;20334;-56
2022/04/29 07:21:41;;;;;;;5.10;4.25;;;;;;;;;;4401483;32;20233;-56
2022/04/29 07:24:07;;;;;;;10.73;4.30;;;;;;;;;;4392309;32;20269;-56
2022/04/29 07:26:32;;;;;;;4.82;3.65;;;;;;;;;;4385710;32;20217;-56
2022/04/29 07:28:58;;;;;;;8.63;4.95;;;;;;;;;;4372120;32;20356;-56
2022/04/29 07:31:23;;;;;;;5.20;4.45;;;;;;;;;;4386602;32;20733;-55
2022/04/29 07:33:49;;;;;;;6.80;4.60;;;;;;;;;;4401305;32;20637;-55
2022/04/29 07:41:45;;;;;;;5.72;3.75;;;;;;;;;;4397867;32;20474;-55
2022/04/29 07:44:11;;;;;;;5.45;4.40;;;;;;;;;;4386629;32;20335;-56
2022/04/29 07:46:37;;;;;;;5.80;4.75;;;;;;;;;;4386634;32;20267;-55
2022/04/29 07:49:03;;;;;;;7.37;4.32;;;;;;;;;;4401583;32;20580;-55
2022/04/29 07:51:29;;;;;;;4.10;3.47;;;;;;;;;;4401153;32;20358;-56
2022/04/29 07:53:54;;;;;;;6.57;4.78;;;;;;;;;;4401875;32;20249;-55
2022/04/29 07:56:20;;;;;;;7.10;4.30;;;;;;;;;;4401195;32;20299;-54
2022/04/29 07:58:45;;;;;;;12.18;4.53;;;;;;;;;;4399872;32;20225;-55
2022/04/29 08:01:11;;;;;;;4.30;3.28;;;;;;;;;;4400046;32;20786;-55
2022/04/29 08:03:37;;;;;;;4.28;3.47;;;;;;;;;;4391747;32;20765;-56
2022/04/29 08:06:07;;;;;;;8.07;4.65;;;;;;;;;;4394895;32;20277;-55
2022/04/29 08:08:33;;;;;;;5.75;4.47;;;;;;;;;;4403529;32;20233;-55
2022/04/29 08:11:00;;;;;;;7.90;6.00;;;;;;;;;;4402923;32;20739;-54
2022/04/29 08:13:27;;;;;;;10.02;4.85;;;;;;;;;;4403953;32;20626;-55
2022/04/29 08:15:52;;;;;;;13.27;4.95;;;;;;;;;;4404478;32;20261;-55
2022/04/29 08:18:19;;;;;;;6.62;4.07;;;;;;;;;;4404005;32;20309;-54
2022/04/29 08:20:45;;;;;;;4.30;3.90;;;;;;;;;;4403933;32;20367;-56
2022/04/29 08:23:10;;;;;;;5.93;4.43;;;;;;;;;;4400961;32;20240;-55
2022/04/29 08:25:37;;;;;;;4.95;4.00;;;;;;;;;;4388764;32;20573;-55
2022/04/29 08:28:04;;;;;;;6.97;3.70;;;;;;;;;;4388573;32;20252;-55
2022/04/29 08:30:30;;;;;;;11.15;3.72;;;;;;;;;;4389099;32;20252;-56
2022/04/29 08:32:57;;;;;;;5.82;3.65;;;;;;;;;;4398133;32;20260;-54
2022/04/29 08:35:24;;;;;;;5.40;4.22;;;;;;;;;;4404157;32;20264;-56
2022/04/29 08:37:49;;;;;;;5.05;3.97;;;;;;;;;;4401112;32;20209;-55
2022/04/29 08:40:16;;;;;;;4.30;3.53;;;;;;;;;;4390788;32;20649;-57
2022/04/29 08:42:42;;;;;;;5.70;3.83;;;;;;;;;;4403561;32;20357;-55
2022/04/29 08:45:13;;;;;;;5.00;3.67;;;;;;;;;;4403069;32;20280;-55
2022/04/29 08:47:40;;;;;;;4.68;3.30;;;;;;;;;;4403095;32;20292;-54
2022/04/29 08:50:27;;;;;;;6.50;3.78;;;;;;;;;;4403250;32;20302;-55
2022/04/29 08:52:54;;;;;;;5.85;3.83;;;;;;;;;;4403229;32;20241;-54
2022/04/29 09:00:48;;;;;;;7.80;4.32;;;;;;;;;;4403061;32;20284;-56
2022/04/29 09:03:18;;;;;;;10.25;3.42;;;;;;;;;;4402790;32;20665;-57
2022/04/29 09:05:46;;;;;;;7.60;3.87;;;;;;;;;;4398558;32;20248;-56
2022/04/29 09:08:14;;;;;;;4.28;3.55;;;;;;;;;;4387685;32;20775;-56
2022/04/29 09:10:54;;;;;;;4.30;3.67;;;;;;;;;;4387794;32;20300;-57
2022/04/29 09:13:28;;;;;;;4.00;3.30;;;;;;;;;;4396547;32;20217;-56
2022/04/29 09:15:59;;;;;;;6.00;4.25;;;;;;;;;;4402640;32;20219;-57
2022/04/29 09:18:33;;;;;;;5.55;3.95;;;;;;;;;;4402861;32;20242;-57
2022/04/29 09:21:02;;;;;;;5.32;3.90;;;;;;;;;;4398746;32;20659;-57
2022/04/29 09:23:29;;;;;;;7.03;4.10;;;;;;;;;;4387300;32;20616;-57
2022/04/29 09:25:57;;;;;;;5.93;3.95;;;;;;;;;;4387550;32;20291;-57
2022/04/29 09:28:24;;;;;;;12.60;4.68;;;;;;;;;;4387402;32;20286;-58
2022/04/29 09:30:54;;;;;;;13.55;3.60;;;;;;;;;;4387625;32;20233;-56
2022/04/29 09:33:21;;;;;;;17.25;5.30;;;;;;;;;;4399095;32;20229;-57
2022/04/29 09:35:48;;;;;;;6.70;3.97;;;;;;;;;;4389054;32;20243;-57
2022/04/29 09:41:01;;;;;;;5.85;3.78;;;;;;;;;;4402542;32;20299;-56
2022/04/29 09:43:47;;;;;;;6.45;4.47;;;;;;;;;;4401299;32;20306;-56
2022/04/29 09:46:13;;;;;;;7.07;4.60;;;;;;;;;;4402223;32;20264;-57
2022/04/29 09:49:00;;;;;;;8.45;4.35;;;;;;;;;;4402477;32;20321;-56
2022/04/29 09:51:45;;;;;;;6.57;4.20;;;;;;;;;;4402401;32;20201;-57
2022/04/29 09:54:18;;;;;;;5.25;4.10;;;;;;;;;;4402754;32;20381;-58
2022/04/29 09:56:45;;;;;;;5.82;4.00;;;;;;;;;;4401695;32;20272;-57
2022/04/29 09:59:11;;;;;;;10.18;3.80;;;;;;;;;;4402163;32;20221;-57
2022/04/29 10:01:36;;;;;;;10.95;4.40;;;;;;;;;;4400838;32;20265;-57
2022/04/29 10:04:02;;;;;;;10.25;3.70;;;;;;;;;;4402018;32;20642;-57
2022/04/29 10:06:29;;;;;;;5.65;3.83;;;;;;;;;;4401917;32;20357;-56
2022/04/29 10:08:59;;;;;;;7.37;3.45;;;;;;;;;;4401914;32;20237;-57
2022/04/29 10:11:32;;;;;;;4.55;3.30;;;;;;;;;;4402207;32;20256;-56
2022/04/29 10:14:04;;;;;;;3.95;3.55;;;;;;;;;;4401961;32;20320;-57
2022/04/29 10:16:33;;;;;;;4.70;3.80;;;;;;;;;;4401920;32;21003;-57
2022/04/29 10:21:50;;;;;;;6.10;4.00;;;;;;;;;;4386748;32;20662;-56
2022/04/29 10:24:16;;;;;;;5.65;4.03;;;;;;;;;;4386671;32;20293;-57
2022/04/29 10:26:42;;;;;;;5.05;3.75;;;;;;;;;;4386368;32;20331;-57
2022/04/29 10:29:08;;;;;;;5.20;4.00;;;;;;;;;;4386783;32;20567;-58
2022/04/29 10:31:33;;;;;;;5.10;4.20;;;;;;;;;;4387188;32;20248;-57
2022/04/29 10:34:31;;;;;;;4.95;3.67;;;;;;;;;;4401484;32;20213;-57
2022/04/29 10:36:58;;;;;;;6.15;4.37;;;;;;;;;;4400425;32;20226;-57
2022/04/29 10:39:24;;;;;;;5.95;4.10;;;;;;;;;;4401897;32;20236;-58
2022/04/29 10:42:06;;;;;;;4.72;4.00;;;;;;;;;;4401796;32;20296;-58
2022/04/29 10:44:31;;;;;;;5.97;4.10;;;;;;;;;;4400861;32;20338;-58
2022/04/29 10:47:23;;;;;;;6.53;4.22;;;;;;;;;;4401779;32;20237;-57
2022/04/29 10:49:48;;;;;;;4.95;4.25;;;;;;;;;;4400946;32;20217;-57
2022/04/29 10:52:28;;;;;;;11.55;4.65;;;;;;;;;;4401896;32;20296;-58
2022/04/29 10:54:58;;;;;;;5.35;4.40;;;;;;;;;;4402290;32;20664;-57
2022/04/29 10:57:49;;;;;;;4.62;4.07;;;;;;;;;;4400630;32;20303;-57
2022/04/29 11:00:16;;;;;;;4.15;3.70;;;;;;;;;;4399435;32;20234;-57
2022/04/29 11:02:42;;;;;;;5.62;3.92;;;;;;;;;;4397612;32;20410;-55
2022/04/29 11:05:08;;;;;;;6.90;4.97;;;;;;;;;;4387835;32;20666;-55
2022/04/29 11:07:37;;;;;;;6.47;4.78;;;;;;;;;;4401557;32;20292;-56
2022/04/29 11:10:05;;;;;;;5.10;4.28;;;;;;;;;;4402013;32;20302;-56
2022/04/29 11:12:39;;;;;;;4.95;4.05;;;;;;;;;;4401692;32;20267;-55
2022/04/29 11:15:23;;;;;;;4.47;3.75;;;;;;;;;;4402765;32;20201;-55
2022/04/29 11:17:49;;;;;;;5.00;4.05;;;;;;;;;;4401982;32;20241;-55
2022/04/29 11:20:25;;;;;;;10.18;4.75;;;;;;;;;;4402406;32;20326;-56
2022/04/29 11:25:57;;;;;;;7.22;4.97;;;;;;;;;;4386886;32;20284;-55
2022/04/29 11:28:24;;;;;;;4.93;3.75;;;;;;;;;;4386636;32;20295;-56
2022/04/29 11:31:02;;;;;;;6.07;4.40;;;;;;;;;;4387091;32;20267;-56
2022/04/29 11:33:27;;;;;;;6.85;4.57;;;;;;;;;;4399438;32;20229;-55
2022/04/29 11:36:01;;;;;;;6.57;4.28;;;;;;;;;;4402021;32;20430;-55
2022/04/29 11:38:28;;;;;;;6.18;4.20;;;;;;;;;;4402684;32;20221;-55
2022/04/29 11:40:54;;;;;;;4.47;3.55;;;;;;;;;;4404614;32;20226;-55
2022/04/29 11:43:23;;;;;;;4.93;4.43;;;;;;;;;;4404533;32;20560;-55
2022/04/29 11:46:05;;;;;;;5.70;4.20;;;;;;;;;;4404773;32;20214;-56
2022/04/29 11:48:34;;;;;;;4.53;3.85;;;;;;;;;;4403422;32;20279;-55
2022/04/29 11:51:00;;;;;;;6.87;4.15;;;;;;;;;;4399745;32;20275;-55
2022/04/29 11:53:26;;;;;;;5.87;4.37;;;;;;;;;;4389521;32;20229;-55
2022/04/29 11:55:52;;;;;;;5.07;4.43;;;;;;;;;;4389738;32;20637;-57
2022/04/29 11:58:18;;;;;;;8.13;4.00;;;;;;;;;;4394011;32;20542;-55
2022/04/29 12:00:51;;;;;;;4.90;3.95;;;;;;;;;;4404460;32;20314;-56
2022/04/29 12:03:22;;;;;;;4.82;4.32;;;;;;;;;;4397807;32;20237;-56
2022/04/29 12:05:48;;;;;;;9.13;4.68;;;;;;;;;;4399923;32;20271;-56
2022/04/29 12:08:14;;;;;;;7.22;4.70;;;;;;;;;;4389241;32;20297;-57
2022/04/29 12:10:42;;;;;;;5.18;3.80;;;;;;;;;;4389392;32;20268;-56
2022/04/29 12:13:08;;;;;;;5.87;4.87;;;;;;;;;;4396651;32;20361;-55
2022/04/29 12:15:35;;;;;;;7.32;4.22;;;;;;;;;;4404692;32;20295;-56
2022/04/29 12:18:09;;;;;;;4.90;4.18;;;;;;;;;;4404317;32;20349;-55
2022/04/29 12:20:37;;;;;;;5.43;3.85;;;;;;;;;;4400852;32;20596;-56
2022/04/29 12:23:10;;;;;;;7.78;5.32;;;;;;;;;;4389302;32;20332;-56
2022/04/29 12:25:39;;;;;;;6.93;3.97;;;;;;;;;;4389527;32;20279;-55
2022/04/29 12:28:22;;;;;;;8.20;4.75;;;;;;;;;;4391488;32;20597;-56
2022/04/29 12:36:57;;;;;;;5.15;4.22;;;;;;;;;;4404571;32;20655;-57
2022/04/29 12:39:32;;;;;;;5.50;4.45;;;;;;;;;;4404453;32;20309;-57
2022/04/29 12:42:28;;;;;;;8.45;4.87;;;;;;;;;;4404152;32;20251;-58
2022/04/29 12:47:39;;;;;;;4.87;3.75;;;;;;;;;;4404218;32;20335;-57
2022/04/29 12:50:26;;;;;;;6.43;4.47;;;;;;;;;;4403181;32;20254;-56
2022/04/29 12:52:57;;;;;;;9.98;4.70;;;;;;;;;;4388958;32;20233;-56
2022/04/29 12:55:23;;;;;;;10.27;4.65;;;;;;;;;;4388638;32;20256;-57
2022/04/29 12:57:48;;;;;;;11.45;5.20;;;;;;;;;;4389225;32;20241;-56
2022/04/29 13:00:25;;;;;;;6.65;4.87;;;;;;;;;;4403923;32;20314;-56
2022/04/29 13:03:07;;;;;;;6.55;4.95;;;;;;;;;;4398885;32;20248;-56
2022/04/29 13:05:34;;;;;;;7.57;4.47;;;;;;;;;;4390785;32;20233;-57
2022/04/29 13:08:01;;;;;;;5.87;5.28;;;;;;;;;;4402472;32;20268;-56
2022/04/29 13:10:27;;;;;;;15.27;4.97;;;;;;;;;;4403686;32;20707;-57
2022/04/29 13:12:54;;;;;;;11.70;6.25;;;;;;;;;;4403445;32;20296;-57
2022/04/29 13:15:20;;;;;;;8.00;5.07;;;;;;;;;;4403512;32;20194;-57
2022/04/29 13:17:45;;;;;;;9.55;3.92;;;;;;;;;;4403687;32;20244;-57
2022/04/29 13:20:11;;;;;;;5.95;5.05;;;;;;;;;;4400166;32;20764;-57
2022/04/29 13:22:37;;;;;;;6.95;5.20;;;;;;;;;;4403579;32;20252;-57
2022/04/29 13:25:08;;;;;;;11.15;4.47;;;;;;;;;;4392062;32;20674;-57
2022/04/29 13:27:34;;;;;;;5.68;5.00;;;;;;;;;;4388164;32;20293;-58
2022/04/29 13:30:05;;;;;;;6.93;4.93;;;;;;;;;;4388853;32;20458;-57
2022/04/29 13:32:31;;;;;;;18.48;6.68;;;;;;;;;;4387415;32;20279;-57
2022/04/29 13:34:56;;;;;;;26.83;6.80;;;;;;;;;;4387414;32;20764;-58
2022/04/29 13:37:22;;;;;;;10.55;6.45;;;;;;;;;;4388383;32;20288;-56
2022/04/29 13:39:47;;;;;;;8.10;5.57;;;;;;;;;;4402239;32;20316;-58
2022/04/29 13:42:16;;;;;;;8.43;5.43;;;;;;;;;;4403139;32;20331;-57
2022/04/29 13:44:42;;;;;;;6.50;4.60;;;;;;;;;;4403413;32;20276;-57
2022/04/29 13:47:08;;;;;;;8.68;5.20;;;;;;;;;;4402918;32;20562;-57
2022/04/29 13:49:34;;;;;;;5.22;4.70;;;;;;;;;;4402653;32;20628;-58
2022/04/29 13:53:07;;;;;;;11.70;4.30;;;;;;;;;;4402458;32;20243;-57
2022/04/29 13:54:45;;;;;;;11.50;6.10;;;;;;;;;;4403162;32;20222;-55
2022/04/29 13:57:10;;;;;;;4.72;4.18;;;;;;;;;;4401565;32;20277;-55
2022/04/29 13:59:36;;;;;;;7.62;4.80;;;;;;;;;;4390070;32;20534;-56
2022/04/29 14:02:01;;;;;;;7.03;4.57;;;;;;;;;;4387949;32;20288;-56
2022/04/29 14:04:28;;;;;;;8.30;5.37;;;;;;;;;;4387792;32;20303;-56
2022/04/29 14:06:53;;;;;;;6.40;4.75;;;;;;;;;;4399472;32;20249;-56
2022/04/29 14:09:18;;;;;;;9.38;4.68;;;;;;;;;;4402927;32;20315;-56
2022/04/29 14:11:44;;;;;;;5.95;4.22;;;;;;;;;;4402093;32;20232;-56
2022/04/29 14:14:10;;;;;;;22.10;5.57;;;;;;;;;;4403022;32;20241;-55
2022/04/29 14:16:35;;;;;;;6.47;5.60;;;;;;;;;;4403103;32;20577;-56
2022/04/29 14:19:01;;;;;;;6.30;4.55;;;;;;;;;;4402976;32;20281;-56
2022/04/29 14:21:26;;;;;;;4.87;4.37;;;;;;;;;;4402570;32;20349;-56
2022/04/29 14:23:52;;;;;;;9.52;3.87;;;;;;;;;;4402330;32;20233;-56
2022/04/29 14:26:17;;;;;;;7.93;5.25;;;;;;;;;;4402806;32;20554;-56
2022/04/29 14:28:43;;;;;;;6.37;5.03;;;;;;;;;;4403051;32;20252;-57
2022/04/29 14:31:08;;;;;;;5.68;4.60;;;;;;;;;;4402971;32;20678;-56
2022/04/29 14:33:34;;;;;;;12.07;6.45;;;;;;;;;;4390275;32;20233;-56
2022/04/29 14:35:59;;;;;;;13.32;5.43;;;;;;;;;;4388023;32;20602;-57
2022/04/29 14:38:25;;;;;;;8.13;5.82;;;;;;;;;;4395832;32;20237;-56
2022/04/29 14:40:52;;;;;;;6.80;5.37;;;;;;;;;;4402767;32;20389;-56
2022/04/29 14:43:17;;;;;;;6.68;5.87;;;;;;;;;;4402378;32;20259;-56
2022/04/29 14:45:43;;;;;;;6.00;5.30;;;;;;;;;;4403236;32;20297;-56
2022/04/29 14:48:09;;;;;;;8.82;5.57;;;;;;;;;;4402837;32;20248;-56
2022/04/29 14:50:35;;;;;;;6.00;4.72;;;;;;;;;;4398751;32;20303;-57
2022/04/29 14:53:01;;;;;;;8.15;4.85;;;;;;;;;;4386014;32;20238;-57
2022/04/29 14:55:26;;;;;;;8.45;5.68;;;;;;;;;;4387254;32;20281;-56
2022/04/29 14:57:51;;;;;;;8.10;5.32;;;;;;;;;;4387099;32;20362;-56
2022/04/29 15:00:17;;;;;;;9.15;5.40;;;;;;;;;;4387368;32;20704;-56
2022/04/29 15:02:43;;;;;;;13.07;5.25;;;;;;;;;;4396116;32;20233;-56
2022/04/29 15:05:08;;;;;;;7.53;5.65;;;;;;;;;;4401234;32;20311;-56
2022/04/29 15:07:34;;;;;;;7.68;5.65;;;;;;;;;;4398830;32;20241;-56
2022/04/29 15:15:37;;;;;;;8.32;5.45;;;;;;;;;;4405233;32;20687;-57
2022/04/29 15:18:16;;;;;;;12.80;6.03;;;;;;;;;;4405310;32;20296;-57
2022/04/29 15:20:41;;;;;;;12.55;5.72;;;;;;;;;;4404170;32;20381;-57
2022/04/29 15:23:08;;;;;;;7.47;6.12;;;;;;;;;;4401473;32;20678;-56
2022/04/29 15:25:34;;;;;;;12.32;5.80;;;;;;;;;;4390412;32;20255;-56
2022/04/29 15:27:59;;;;;;;8.45;6.10;;;;;;;;;;4389993;32;20260;-56